Franklin Springs, Georgia
Current Conditions -  °F | °C
As of 10:55 PM on Tuesday 27 Jan 2015 (Local Time) from KTOC Reporting Station
Clear Clear  
Wind Chill: 33°   Ceiling: Unl
Heat Index: 37°   Visibility: 10mi
Dew Point: 26°   Wind: 5mph
Humidity: 65%   Direction: 310°NW
Pressure: 30.04"   Gusts: NA
Location:  34.28°N, 83.14°W
Report Text: KTOC 280355Z AUTO 31004KT 10SM CLR 03/M03 A3004 RMK AO2 T00251035
Loading
Personal Weather Stations






























Interactive Weather Map New forecast layout! Learn more

10-Day Weather Forecast

Advertisements
Track Severe Weather on mobile